sensor_id;sensor_type;location;lat;lon;timestamp;pressure;altitude;pressure_sealevel;temperature;humidity
22662;BME280;11497;52.222;21.246;2022-10-17T00:01:06;101300.72;;;11.14;100.00
22662;BME280;11497;52.222;21.246;2022-10-17T00:03:36;101302.50;;;11.12;100.00
22662;BME280;11497;52.222;21.246;2022-10-17T00:06:10;101307.75;;;11.12;100.00
22662;BME280;11497;52.222;21.246;2022-10-17T00:08:39;101307.63;;;11.18;100.00
22662;BME280;11497;52.222;21.246;2022-10-17T00:11:13;101312.91;;;11.15;100.00
22662;BME280;11497;52.222;21.246;2022-10-17T00:13:42;101319.94;;;11.13;100.00
22662;BME280;11497;52.222;21.246;2022-10-17T00:16:10;101318.16;;;11.15;100.00
22662;BME280;11497;52.222;21.246;2022-10-17T00:18:38;101321.66;;;11.14;100.00
22662;BME280;11497;52.222;21.246;2022-10-17T00:21:13;101326.03;;;11.15;100.00
22662;BME280;11497;52.222;21.246;2022-10-17T00:23:41;101323.34;;;11.18;100.00
22662;BME280;11497;52.222;21.246;2022-10-17T00:26:09;101328.50;;;11.21;100.00
22662;BME280;11497;52.222;21.246;2022-10-17T00:28:37;101318.72;;;11.29;100.00
22662;BME280;11497;52.222;21.246;2022-10-17T00:31:06;101319.78;;;11.20;100.00
22662;BME280;11497;52.222;21.246;2022-10-17T00:33:35;101318.97;;;11.18;100.00
22662;BME280;11497;52.222;21.246;2022-10-17T00:36:07;101309.25;;;11.23;100.00
22662;BME280;11497;52.222;21.246;2022-10-17T00:38:36;101300.66;;;11.17;100.00
22662;BME280;11497;52.222;21.246;2022-10-17T00:41:04;101306.88;;;11.11;100.00
22662;BME280;11497;52.222;21.246;2022-10-17T00:44:01;101307.84;;;11.07;100.00
22662;BME280;11497;52.222;21.246;2022-10-17T00:46:33;101298.22;;;11.08;100.00
22662;BME280;11497;52.222;21.246;2022-10-17T00:49:08;101304.22;;;11.13;100.00
22662;BME280;11497;52.222;21.246;2022-10-17T00:51:40;101308.63;;;11.11;100.00
22662;BME280;11497;52.222;21.246;2022-10-17T00:54:10;101313.16;;;11.03;100.00
22662;BME280;11497;52.222;21.246;2022-10-17T00:56:39;101313.28;;;10.96;100.00
22662;BME280;11497;52.222;21.246;2022-10-17T00:59:09;101315.06;;;10.94;100.00
22662;BME280;11497;52.222;21.246;2022-10-17T01:01:40;101317.84;;;10.87;100.00
22662;BME280;11497;52.222;21.246;2022-10-17T01:04:10;101317.03;;;10.83;100.00
22662;BME280;11497;52.222;21.246;2022-10-17T01:06:39;101319.72;;;10.82;100.00
22662;BME280;11497;52.222;21.246;2022-10-17T01:09:07;101309.22;;;10.82;100.00
22662;BME280;11497;52.222;21.246;2022-10-17T01:23:35;101326.56;;;10.87;100.00
22662;BME280;11497;52.222;21.246;2022-10-17T01:26:18;101334.56;;;10.81;100.00
22662;BME280;11497;52.222;21.246;2022-10-17T01:31:46;101334.34;;;10.90;100.00
22662;BME280;11497;52.222;21.246;2022-10-17T01:37:00;101330.25;;;11.22;100.00
22662;BME280;11497;52.222;21.246;2022-10-17T01:39:35;101337.16;;;11.26;100.00
22662;BME280;11497;52.222;21.246;2022-10-17T01:42:38;101328.28;;;11.30;100.00
22662;BME280;11497;52.222;21.246;2022-10-17T01:45:20;101317.81;;;11.30;100.00
22662;BME280;11497;52.222;21.246;2022-10-17T01:47:51;101321.97;;;11.40;100.00
22662;BME280;11497;52.222;21.246;2022-10-17T01:50:30;101318.56;;;11.35;100.00
22662;BME280;11497;52.222;21.246;2022-10-17T01:53:13;101322.06;;;11.36;100.00
22662;BME280;11497;52.222;21.246;2022-10-17T01:55:47;101312.44;;;11.36;100.00
22662;BME280;11497;52.222;21.246;2022-10-17T01:58:25;101315.75;;;11.44;100.00
22662;BME280;11497;52.222;21.246;2022-10-17T02:00:57;101311.38;;;11.45;100.00
22662;BME280;11497;52.222;21.246;2022-10-17T02:03:31;101321.06;;;11.41;100.00
22662;BME280;11497;52.222;21.246;2022-10-17T02:06:01;101321.97;;;11.40;100.00
22662;BME280;11497;52.222;21.246;2022-10-17T02:08:47;101321.91;;;11.43;100.00
22662;BME280;11497;52.222;21.246;2022-10-17T02:22:09;101320.75;;;11.16;100.00
22662;BME280;11497;52.222;21.246;2022-10-17T02:32:33;101331.41;;;11.07;100.00
22662;BME280;11497;52.222;21.246;2022-10-17T02:35:03;101324.63;;;10.97;100.00
22662;BME280;11497;52.222;21.246;2022-10-17T02:37:34;101329.94;;;10.92;100.00
22662;BME280;11497;52.222;21.246;2022-10-17T02:40:04;101333.47;;;10.91;100.00
22662;BME280;11497;52.222;21.246;2022-10-17T02:42:33;101344.09;;;10.84;100.00
22662;BME280;11497;52.222;21.246;2022-10-17T02:45:04;101352.00;;;10.82;100.00
22662;BME280;11497;52.222;21.246;2022-10-17T02:50:15;101367.00;;;10.73;100.00
22662;BME280;11497;52.222;21.246;2022-10-17T02:52:55;101372.16;;;10.77;100.00
22662;BME280;11497;52.222;21.246;2022-10-17T02:55:31;101375.59;;;10.81;100.00
22662;BME280;11497;52.222;21.246;2022-10-17T02:58:03;101364.47;;;10.68;100.00
22662;BME280;11497;52.222;21.246;2022-10-17T03:00:40;101376.50;;;10.78;100.00
22662;BME280;11497;52.222;21.246;2022-10-17T03:03:30;101370.47;;;10.75;100.00
22662;BME280;11497;52.222;21.246;2022-10-17T03:06:01;101370.34;;;10.81;100.00
22662;BME280;11497;52.222;21.246;2022-10-17T03:08:29;101378.28;;;10.76;100.00
22662;BME280;11497;52.222;21.246;2022-10-17T03:10:57;101386.75;;;10.90;100.00
22662;BME280;11497;52.222;21.246;2022-10-17T03:13:27;101388.28;;;11.00;100.00
22662;BME280;11497;52.222;21.246;2022-10-17T03:15:56;101391.00;;;10.96;100.00
22662;BME280;11497;52.222;21.246;2022-10-17T03:18:24;101396.28;;;10.93;100.00
22662;BME280;11497;52.222;21.246;2022-10-17T03:20:57;101393.69;;;10.91;100.00
22662;BME280;11497;52.222;21.246;2022-10-17T03:23:25;101405.91;;;10.92;100.00
22662;BME280;11497;52.222;21.246;2022-10-17T03:25:53;101398.03;;;10.94;100.00
22662;BME280;11497;52.222;21.246;2022-10-17T03:28:21;101399.59;;;11.04;100.00
22662;BME280;11497;52.222;21.246;2022-10-17T03:30:49;101398.66;;;11.07;100.00
22662;BME280;11497;52.222;21.246;2022-10-17T03:33:17;101388.81;;;11.19;100.00
22662;BME280;11497;52.222;21.246;2022-10-17T03:35:45;101391.53;;;11.15;100.00
22662;BME280;11497;52.222;21.246;2022-10-17T03:38:13;101394.97;;;11.17;100.00
22662;BME280;11497;52.222;21.246;2022-10-17T03:40:41;101407.78;;;11.30;100.00
22662;BME280;11497;52.222;21.246;2022-10-17T03:43:09;101411.91;;;11.42;100.00
22662;BME280;11497;52.222;21.246;2022-10-17T03:45:40;101417.28;;;11.36;100.00
22662;BME280;11497;52.222;21.246;2022-10-17T03:48:08;101411.19;;;11.36;100.00
22662;BME280;11497;52.222;21.246;2022-10-17T03:50:36;101414.91;;;11.25;100.00
22662;BME280;11497;52.222;21.246;2022-10-17T03:53:03;101408.69;;;11.29;100.00
22662;BME280;11497;52.222;21.246;2022-10-17T03:55:32;101414.78;;;11.30;100.00
22662;BME280;11497;52.222;21.246;2022-10-17T03:58:00;101409.53;;;11.30;100.00
22662;BME280;11497;52.222;21.246;2022-10-17T04:00:28;101402.81;;;11.18;100.00
22662;BME280;11497;52.222;21.246;2022-10-17T04:02:58;101410.31;;;11.35;100.00
22662;BME280;11497;52.222;21.246;2022-10-17T04:05:26;101414.47;;;11.45;100.00
22662;BME280;11497;52.222;21.246;2022-10-17T04:07:55;101413.53;;;11.49;100.00
22662;BME280;11497;52.222;21.246;2022-10-17T04:10:47;101408.22;;;11.52;100.00
22662;BME280;11497;52.222;21.246;2022-10-17T04:13:15;101407.19;;;11.59;100.00
22662;BME280;11497;52.222;21.246;2022-10-17T04:15:56;101409.81;;;11.59;100.00
22662;BME280;11497;52.222;21.246;2022-10-17T04:18:24;101413.91;;;11.71;100.00
22662;BME280;11497;52.222;21.246;2022-10-17T04:20:53;101411.25;;;11.73;100.00
22662;BME280;11497;52.222;21.246;2022-10-17T04:23:21;101419.94;;;11.75;100.00
22662;BME280;11497;52.222;21.246;2022-10-17T04:26:00;101425.13;;;11.79;100.00
22662;BME280;11497;52.222;21.246;2022-10-17T04:28:31;101426.72;;;11.86;100.00
22662;BME280;11497;52.222;21.246;2022-10-17T04:31:04;101431.06;;;11.89;100.00
22662;BME280;11497;52.222;21.246;2022-10-17T04:33:38;101429.00;;;12.03;100.00
22662;BME280;11497;52.222;21.246;2022-10-17T04:36:12;101423.56;;;12.11;100.00
22662;BME280;11497;52.222;21.246;2022-10-17T04:38:41;101424.34;;;12.14;100.00
22662;BME280;11497;52.222;21.246;2022-10-17T04:41:14;101427.09;;;12.10;100.00
22662;BME280;11497;52.222;21.246;2022-10-17T04:43:43;101435.69;;;12.15;100.00
22662;BME280;11497;52.222;21.246;2022-10-17T04:46:18;101431.25;;;12.18;100.00
22662;BME280;11497;52.222;21.246;2022-10-17T04:48:46;101433.88;;;12.18;100.00
22662;BME280;11497;52.222;21.246;2022-10-17T04:51:17;101431.09;;;12.24;100.00
22662;BME280;11497;52.222;21.246;2022-10-17T04:54:09;101434.56;;;12.26;100.00
22662;BME280;11497;52.222;21.246;2022-10-17T04:56:41;101431.97;;;12.25;100.00
22662;BME280;11497;52.222;21.246;2022-10-17T04:59:09;101435.34;;;12.30;100.00
22662;BME280;11497;52.222;21.246;2022-10-17T05:01:39;101441.31;;;12.37;100.00
22662;BME280;11497;52.222;21.246;2022-10-17T05:04:07;101446.47;;;12.41;100.00
22662;BME280;11497;52.222;21.246;2022-10-17T05:06:36;101444.97;;;12.29;100.00
22662;BME280;11497;52.222;21.246;2022-10-17T05:09:23;101447.34;;;12.40;100.00
22662;BME280;11497;52.222;21.246;2022-10-17T05:11:51;101449.28;;;12.32;100.00
22662;BME280;11497;52.222;21.246;2022-10-17T05:14:19;101445.78;;;12.33;100.00
22662;BME280;11497;52.222;21.246;2022-10-17T05:16:49;101451.13;;;12.28;100.00
22662;BME280;11497;52.222;21.246;2022-10-17T05:19:16;101461.38;;;12.39;100.00
22662;BME280;11497;52.222;21.246;2022-10-17T05:21:48;101459.78;;;12.32;100.00
22662;BME280;11497;52.222;21.246;2022-10-17T05:24:16;101468.59;;;12.29;100.00
22662;BME280;11497;52.222;21.246;2022-10-17T05:26:44;101483.47;;;12.30;100.00
22662;BME280;11497;52.222;21.246;2022-10-17T05:29:12;101479.88;;;12.35;100.00
22662;BME280;11497;52.222;21.246;2022-10-17T05:31:45;101484.97;;;12.41;100.00
22662;BME280;11497;52.222;21.246;2022-10-17T05:34:13;101494.44;;;12.48;100.00
22662;BME280;11497;52.222;21.246;2022-10-17T05:36:42;101497.63;;;12.60;100.00
22662;BME280;11497;52.222;21.246;2022-10-17T05:39:12;101497.25;;;12.76;100.00
22662;BME280;11497;52.222;21.246;2022-10-17T05:41:42;101482.09;;;12.87;100.00
22662;BME280;11497;52.222;21.246;2022-10-17T05:44:09;101491.75;;;12.86;100.00
22662;BME280;11497;52.222;21.246;2022-10-17T05:46:40;101499.81;;;12.79;100.00
22662;BME280;11497;52.222;21.246;2022-10-17T05:49:09;101505.50;;;12.96;100.00
22662;BME280;11497;52.222;21.246;2022-10-17T05:51:58;101512.53;;;12.95;100.00
22662;BME280;11497;52.222;21.246;2022-10-17T05:54:27;101514.91;;;13.05;100.00
22662;BME280;11497;52.222;21.246;2022-10-17T05:56:56;101515.81;;;13.04;100.00
22662;BME280;11497;52.222;21.246;2022-10-17T05:59:28;101520.00;;;13.11;100.00
22662;BME280;11497;52.222;21.246;2022-10-17T06:02:16;101533.84;;;13.19;100.00
22662;BME280;11497;52.222;21.246;2022-10-17T06:04:44;101539.19;;;13.16;100.00
22662;BME280;11497;52.222;21.246;2022-10-17T06:07:15;101542.63;;;13.18;100.00
22662;BME280;11497;52.222;21.246;2022-10-17T06:09:44;101542.41;;;13.27;100.00
22662;BME280;11497;52.222;21.246;2022-10-17T06:12:17;101546.09;;;13.20;100.00
22662;BME280;11497;52.222;21.246;2022-10-17T06:14:46;101529.66;;;13.10;100.00
22662;BME280;11497;52.222;21.246;2022-10-17T06:17:15;101540.84;;;13.20;100.00
22662;BME280;11497;52.222;21.246;2022-10-17T06:19:44;101535.34;;;13.29;100.00
22662;BME280;11497;52.222;21.246;2022-10-17T06:22:14;101541.53;;;13.26;100.00
22662;BME280;11497;52.222;21.246;2022-10-17T06:24:42;101540.69;;;13.26;100.00
22662;BME280;11497;52.222;21.246;2022-10-17T06:27:12;101542.16;;;13.36;100.00
22662;BME280;11497;52.222;21.246;2022-10-17T06:29:41;101540.28;;;13.41;100.00
22662;BME280;11497;52.222;21.246;2022-10-17T06:32:10;101541.91;;;13.45;100.00
22662;BME280;11497;52.222;21.246;2022-10-17T06:34:44;101553.66;;;13.64;100.00
22662;BME280;11497;52.222;21.246;2022-10-17T06:37:12;101548.22;;;13.71;100.00
22662;BME280;11497;52.222;21.246;2022-10-17T06:39:41;101556.41;;;13.91;100.00
22662;BME280;11497;52.222;21.246;2022-10-17T06:42:20;101562.97;;;14.07;100.00
22662;BME280;11497;52.222;21.246;2022-10-17T06:45:06;101567.28;;;14.10;100.00
22662;BME280;11497;52.222;21.246;2022-10-17T06:48:00;101566.09;;;14.20;100.00
22662;BME280;11497;52.222;21.246;2022-10-17T06:50:51;101564.47;;;14.45;100.00
22662;BME280;11497;52.222;21.246;2022-10-17T06:53:22;101573.78;;;14.57;98.50
22662;BME280;11497;52.222;21.246;2022-10-17T06:56:07;101576.63;;;14.77;97.29
22662;BME280;11497;52.222;21.246;2022-10-17T06:58:54;101569.16;;;14.91;95.62
22662;BME280;11497;52.222;21.246;2022-10-17T07:01:25;101568.00;;;15.00;94.30
22662;BME280;11497;52.222;21.246;2022-10-17T07:03:57;101577.22;;;15.13;93.82
22662;BME280;11497;52.222;21.246;2022-10-17T07:06:25;101581.66;;;15.38;92.14
22662;BME280;11497;52.222;21.246;2022-10-17T07:08:55;101586.69;;;15.45;91.36
22662;BME280;11497;52.222;21.246;2022-10-17T07:11:23;101575.41;;;15.67;90.71
22662;BME280;11497;52.222;21.246;2022-10-17T07:13:52;101581.63;;;15.89;89.73
22662;BME280;11497;52.222;21.246;2022-10-17T07:16:21;101574.50;;;16.14;87.68
22662;BME280;11497;52.222;21.246;2022-10-17T07:18:57;101578.88;;;16.15;86.87
22662;BME280;11497;52.222;21.246;2022-10-17T07:21:25;101580.03;;;16.32;86.04
22662;BME280;11497;52.222;21.246;2022-10-17T07:23:53;101578.56;;;16.46;85.07
22662;BME280;11497;52.222;21.246;2022-10-17T07:26:21;101587.09;;;16.98;83.76
22662;BME280;11497;52.222;21.246;2022-10-17T07:28:52;101591.38;;;18.04;80.87
22662;BME280;11497;52.222;21.246;2022-10-17T07:31:32;101592.38;;;18.95;75.49
22662;BME280;11497;52.222;21.246;2022-10-17T07:34:00;101593.81;;;19.37;72.18
22662;BME280;11497;52.222;21.246;2022-10-17T07:36:28;101598.72;;;20.12;69.62
22662;BME280;11497;52.222;21.246;2022-10-17T07:38:58;101595.50;;;20.85;66.26
22662;BME280;11497;52.222;21.246;2022-10-17T07:41:27;101593.91;;;21.87;62.69
22662;BME280;11497;52.222;21.246;2022-10-17T07:43:55;101594.13;;;22.27;59.40
22662;BME280;11497;52.222;21.246;2022-10-17T07:46:29;101594.69;;;22.87;57.49
22662;BME280;11497;52.222;21.246;2022-10-17T07:48:57;101600.81;;;23.41;55.72
22662;BME280;11497;52.222;21.246;2022-10-17T07:51:25;101612.84;;;24.12;54.43
22662;BME280;11497;52.222;21.246;2022-10-17T07:53:54;101615.41;;;24.39;51.94
22662;BME280;11497;52.222;21.246;2022-10-17T07:56:22;101618.75;;;24.66;50.80
22662;BME280;11497;52.222;21.246;2022-10-17T07:58:52;101618.44;;;24.95;49.10
22662;BME280;11497;52.222;21.246;2022-10-17T08:01:20;101618.19;;;25.45;48.09
22662;BME280;11497;52.222;21.246;2022-10-17T08:03:48;101621.94;;;25.78;46.49
22662;BME280;11497;52.222;21.246;2022-10-17T08:06:16;101631.44;;;25.71;45.36
22662;BME280;11497;52.222;21.246;2022-10-17T08:08:44;101631.94;;;25.76;45.36
22662;BME280;11497;52.222;21.246;2022-10-17T08:11:14;101634.66;;;26.54;44.86
22662;BME280;11497;52.222;21.246;2022-10-17T08:13:42;101641.72;;;26.66;42.98
22662;BME280;11497;52.222;21.246;2022-10-17T08:16:11;101647.31;;;26.07;43.04
22662;BME280;11497;52.222;21.246;2022-10-17T08:18:41;101643.41;;;26.00;43.87
22662;BME280;11497;52.222;21.246;2022-10-17T08:21:10;101633.16;;;26.05;43.99
22662;BME280;11497;52.222;21.246;2022-10-17T08:23:40;101638.25;;;24.68;44.56
22662;BME280;11497;52.222;21.246;2022-10-17T08:26:08;101631.88;;;23.69;46.81
22662;BME280;11497;52.222;21.246;2022-10-17T08:28:40;101632.34;;;23.36;47.79
22662;BME280;11497;52.222;21.246;2022-10-17T08:31:17;101637.13;;;23.44;49.03
22662;BME280;11497;52.222;21.246;2022-10-17T08:33:46;101631.69;;;23.98;48.47
22662;BME280;11497;52.222;21.246;2022-10-17T08:36:17;101623.53;;;24.37;47.69
22662;BME280;11497;52.222;21.246;2022-10-17T08:38:46;101620.09;;;24.48;46.75
22662;BME280;11497;52.222;21.246;2022-10-17T08:46:40;101616.91;;;24.17;46.97
22662;BME280;11497;52.222;21.246;2022-10-17T08:50:00;101616.28;;;25.00;46.90
22662;BME280;11497;52.222;21.246;2022-10-17T08:52:21;101620.75;;;26.27;44.65
22662;BME280;11497;52.222;21.246;2022-10-17T08:54:54;101615.34;;;27.14;43.06
22662;BME280;11497;52.222;21.246;2022-10-17T08:57:22;101621.75;;;27.55;41.65
22662;BME280;11497;52.222;21.246;2022-10-17T08:59:52;101617.00;;;28.20;40.65
22662;BME280;11497;52.222;21.246;2022-10-17T09:10:59;101619.00;;;29.36;37.96
22662;BME280;11497;52.222;21.246;2022-10-17T09:19:56;101613.84;;;29.72;35.94
22662;BME280;11497;52.222;21.246;2022-10-17T09:22:48;101613.03;;;30.08;35.69
22662;BME280;11497;52.222;21.246;2022-10-17T09:25:19;101609.59;;;29.69;35.97
22662;BME280;11497;52.222;21.246;2022-10-17T09:27:55;101603.66;;;29.93;36.08
22662;BME280;11497;52.222;21.246;2022-10-17T09:30:46;101613.66;;;30.30;35.13
22662;BME280;11497;52.222;21.246;2022-10-17T09:33:18;101614.53;;;30.48;34.87
22662;BME280;11497;52.222;21.246;2022-10-17T09:36:13;101598.44;;;30.56;34.65
22662;BME280;11497;52.222;21.246;2022-10-17T09:39:13;101617.28;;;30.38;34.20
22662;BME280;11497;52.222;21.246;2022-10-17T09:49:34;101615.00;;;28.83;35.83
22662;BME280;11497;52.222;21.246;2022-10-17T09:52:05;101603.38;;;28.82;36.51
22662;BME280;11497;52.222;21.246;2022-10-17T09:54:54;101602.75;;;28.59;36.68
22662;BME280;11497;52.222;21.246;2022-10-17T09:57:24;101607.25;;;28.49;36.95
22662;BME280;11497;52.222;21.246;2022-10-17T10:00:04;101607.25;;;28.49;37.35
22662;BME280;11497;52.222;21.246;2022-10-17T10:02:39;101592.25;;;28.75;37.10
22662;BME280;11497;52.222;21.246;2022-10-17T10:05:18;101599.75;;;28.53;37.25
22662;BME280;11497;52.222;21.246;2022-10-17T10:08:04;101591.13;;;27.46;38.57
22662;BME280;11497;52.222;21.246;2022-10-17T10:10:32;101591.09;;;26.06;40.59
22662;BME280;11497;52.222;21.246;2022-10-17T10:13:26;101585.88;;;25.01;42.58
22662;BME280;11497;52.222;21.246;2022-10-17T10:18:45;101588.34;;;24.05;45.65
22662;BME280;11497;52.222;21.246;2022-10-17T10:21:25;101574.91;;;23.69;46.16
22662;BME280;11497;52.222;21.246;2022-10-17T10:26:48;101575.34;;;23.23;48.18
22662;BME280;11497;52.222;21.246;2022-10-17T10:29:30;101564.69;;;22.96;48.55
22662;BME280;11497;52.222;21.246;2022-10-17T10:32:24;101566.53;;;22.96;49.43
22662;BME280;11497;52.222;21.246;2022-10-17T10:37:45;101566.00;;;22.76;50.19
22662;BME280;11497;52.222;21.246;2022-10-17T10:40:16;101566.00;;;22.76;50.80
22662;BME280;11497;52.222;21.246;2022-10-17T10:42:55;101569.44;;;22.64;51.08
22662;BME280;11497;52.222;21.246;2022-10-17T10:45:39;101569.53;;;22.77;51.65
22662;BME280;11497;52.222;21.246;2022-10-17T10:48:22;101570.38;;;22.92;50.83
22662;BME280;11497;52.222;21.246;2022-10-17T10:51:13;101575.91;;;22.88;51.07
22662;BME280;11497;52.222;21.246;2022-10-17T10:56:53;101562.00;;;22.83;50.68
22662;BME280;11497;52.222;21.246;2022-10-17T10:59:38;101561.91;;;22.85;50.59
22662;BME280;11497;52.222;21.246;2022-10-17T11:02:25;101562.41;;;22.63;50.86
22662;BME280;11497;52.222;21.246;2022-10-17T11:04:58;101568.09;;;22.71;50.97
22662;BME280;11497;52.222;21.246;2022-10-17T11:07:42;101563.22;;;22.51;51.12
22662;BME280;11497;52.222;21.246;2022-10-17T11:13:24;101562.56;;;22.74;51.09
22662;BME280;11497;52.222;21.246;2022-10-17T11:16:00;101564.78;;;22.82;50.92
22662;BME280;11497;52.222;21.246;2022-10-17T11:18:57;101558.09;;;22.75;50.51
22662;BME280;11497;52.222;21.246;2022-10-17T11:24:49;101565.81;;;22.79;50.18
22662;BME280;11497;52.222;21.246;2022-10-17T11:27:24;101556.25;;;22.89;50.16
22662;BME280;11497;52.222;21.246;2022-10-17T11:29:52;101566.44;;;23.10;50.17
22662;BME280;11497;52.222;21.246;2022-10-17T11:32:27;101562.50;;;23.15;49.92
22662;BME280;11497;52.222;21.246;2022-10-17T11:35:17;101570.22;;;23.20;50.00
22662;BME280;11497;52.222;21.246;2022-10-17T11:40:34;101566.13;;;23.14;50.04
22662;BME280;11497;52.222;21.246;2022-10-17T11:43:12;101562.06;;;23.09;50.35
22662;BME280;11497;52.222;21.246;2022-10-17T11:45:45;101563.16;;;23.19;50.07
22662;BME280;11497;52.222;21.246;2022-10-17T11:48:21;101563.97;;;22.94;49.77
22662;BME280;11497;52.222;21.246;2022-10-17T11:51:15;101548.97;;;22.79;49.81
22662;BME280;11497;52.222;21.246;2022-10-17T11:54:24;101558.38;;;22.70;50.41
22662;BME280;11497;52.222;21.246;2022-10-17T12:05:54;101564.78;;;22.82;51.10
22662;BME280;11497;52.222;21.246;2022-10-17T12:08:35;101570.38;;;22.92;50.59
22662;BME280;11497;52.222;21.246;2022-10-17T12:13:55;101564.13;;;22.78;50.77
22662;BME280;11497;52.222;21.246;2022-10-17T12:21:41;101560.09;;;22.71;50.63
22662;BME280;11497;52.222;21.246;2022-10-17T12:24:41;101555.31;;;22.76;51.14
22662;BME280;11497;52.222;21.246;2022-10-17T12:27:40;101563.97;;;22.94;50.48
22662;BME280;11497;52.222;21.246;2022-10-17T12:35:50;101548.38;;;22.47;50.93
22662;BME280;11497;52.222;21.246;2022-10-17T12:38:26;101542.50;;;22.54;51.21
22662;BME280;11497;52.222;21.246;2022-10-17T12:40:56;101538.97;;;22.54;51.04
22662;BME280;11497;52.222;21.246;2022-10-17T12:46:02;101535.50;;;22.80;50.38
22662;BME280;11497;52.222;21.246;2022-10-17T12:51:16;101534.38;;;22.70;50.69
22662;BME280;11497;52.222;21.246;2022-10-17T12:54:16;101528.88;;;22.59;50.61
22662;BME280;11497;52.222;21.246;2022-10-17T12:56:46;101526.59;;;22.53;50.62
22662;BME280;11497;52.222;21.246;2022-10-17T12:59:26;101527.91;;;22.60;50.46
22662;BME280;11497;52.222;21.246;2022-10-17T13:01:58;101528.13;;;22.57;50.40
22662;BME280;11497;52.222;21.246;2022-10-17T13:04:28;101518.75;;;22.64;50.65
22662;BME280;11497;52.222;21.246;2022-10-17T13:06:58;101521.22;;;22.67;51.01
22662;BME280;11497;52.222;21.246;2022-10-17T13:09:30;101521.22;;;22.67;51.27
22662;BME280;11497;52.222;21.246;2022-10-17T13:12:04;101521.25;;;22.53;50.46
22662;BME280;11497;52.222;21.246;2022-10-17T13:14:39;101528.63;;;22.49;50.64
22662;BME280;11497;52.222;21.246;2022-10-17T13:17:28;101518.72;;;22.51;50.83
22662;BME280;11497;52.222;21.246;2022-10-17T13:19:57;101521.50;;;22.50;51.04
22662;BME280;11497;52.222;21.246;2022-10-17T13:22:30;101517.50;;;22.43;50.93
22662;BME280;11497;52.222;21.246;2022-10-17T13:25:13;101519.25;;;22.30;51.05
22662;BME280;11497;52.222;21.246;2022-10-17T13:27:41;101521.34;;;22.24;51.29
22662;BME280;11497;52.222;21.246;2022-10-17T13:32:59;101519.19;;;22.17;51.51
22662;BME280;11497;52.222;21.246;2022-10-17T13:35:31;101519.66;;;21.95;51.99
22662;BME280;11497;52.222;21.246;2022-10-17T13:38:25;101516.16;;;21.80;52.38
22662;BME280;11497;52.222;21.246;2022-10-17T13:40:53;101515.28;;;21.80;52.63
22662;BME280;11497;52.222;21.246;2022-10-17T13:43:32;101512.25;;;21.72;52.98
22662;BME280;11497;52.222;21.246;2022-10-17T13:46:02;101512.03;;;21.75;53.21
22662;BME280;11497;52.222;21.246;2022-10-17T13:48:52;101500.34;;;21.77;53.15
22662;BME280;11497;52.222;21.246;2022-10-17T13:51:20;101500.44;;;21.76;53.59
22662;BME280;11497;52.222;21.246;2022-10-17T13:53:48;101499.19;;;21.67;53.83
22662;BME280;11497;52.222;21.246;2022-10-17T13:56:24;101504.25;;;21.57;54.14
22662;BME280;11497;52.222;21.246;2022-10-17T13:59:02;101494.16;;;21.48;54.57
22662;BME280;11497;52.222;21.246;2022-10-17T14:01:37;101496.44;;;21.40;55.23
22662;BME280;11497;52.222;21.246;2022-10-17T14:04:05;101488.91;;;21.33;55.29
22662;BME280;11497;52.222;21.246;2022-10-17T14:06:44;101489.59;;;21.36;55.41
22662;BME280;11497;52.222;21.246;2022-10-17T14:09:22;101490.09;;;21.13;55.72
22662;BME280;11497;52.222;21.246;2022-10-17T14:12:02;101482.28;;;21.10;56.17
22662;BME280;11497;52.222;21.246;2022-10-17T14:14:30;101492.34;;;21.05;56.80
22662;BME280;11497;52.222;21.246;2022-10-17T14:17:27;101490.78;;;20.86;57.18
22662;BME280;11497;52.222;21.246;2022-10-17T14:19:58;101489.63;;;20.76;57.49
22662;BME280;11497;52.222;21.246;2022-10-17T14:22:50;101488.25;;;20.69;58.08
22662;BME280;11497;52.222;21.246;2022-10-17T14:25:39;101482.75;;;20.72;58.50
22662;BME280;11497;52.222;21.246;2022-10-17T14:30:40;101484.16;;;20.48;59.15
22662;BME280;11497;52.222;21.246;2022-10-17T14:33:29;101479.63;;;20.34;59.60
22662;BME280;11497;52.222;21.246;2022-10-17T14:35:59;101467.88;;;20.22;60.15
22662;BME280;11497;52.222;21.246;2022-10-17T14:38:29;101473.88;;;20.10;60.87
22662;BME280;11497;52.222;21.246;2022-10-17T14:41:13;101469.22;;;19.98;61.28
22662;BME280;11497;52.222;21.246;2022-10-17T14:44:02;101465.56;;;19.85;61.88
22662;BME280;11497;52.222;21.246;2022-10-17T14:46:34;101468.88;;;19.73;62.82
22662;BME280;11497;52.222;21.246;2022-10-17T14:49:07;101470.91;;;19.68;63.20
22662;BME280;11497;52.222;21.246;2022-10-17T14:52:10;101464.22;;;19.60;64.02
22662;BME280;11497;52.222;21.246;2022-10-17T14:54:45;101460.41;;;19.49;64.42
22662;BME280;11497;52.222;21.246;2022-10-17T14:57:49;101461.59;;;19.43;65.23
22662;BME280;11497;52.222;21.246;2022-10-17T15:00:19;101463.97;;;19.32;65.69
22662;BME280;11497;52.222;21.246;2022-10-17T15:02:48;101464.44;;;19.23;66.41
22662;BME280;11497;52.222;21.246;2022-10-17T15:05:17;101459.28;;;19.20;66.82
22662;BME280;11497;52.222;21.246;2022-10-17T15:07:46;101456.94;;;19.14;67.29
22662;BME280;11497;52.222;21.246;2022-10-17T15:10:24;101462.13;;;19.00;67.93
22662;BME280;11497;52.222;21.246;2022-10-17T15:12:53;101464.00;;;18.98;68.28